Time;durP1;ratioP1;P1;durP2;ratioP2;P2;SDS_P1;SDS_P2;PMS_P1;PMS_P2;Temp;Humidity;BMP_temperature;BMP_pressure;BME280_temperature;BME280_humidity;BME280_pressure;Samples;Min_cycle;Max_cycle;Signal;HPM_P1;HPM_P2
2022/11/27 00:07:41;;;;;;;32.73;23.33;;;;;5.70;100199.00;;;;16550659;28;20232;-46
2022/11/27 00:15:43;;;;;;;33.13;22.60;;;;;5.90;100189.00;;;;16560013;28;20237;-47
2022/11/27 00:23:47;;;;;;;31.93;22.10;;;;;5.70;100179.00;;;;16588668;28;20318;-47
2022/11/27 00:31:50;;;;;;;29.83;21.17;;;;;5.90;100163.00;;;;16576065;28;20640;-47
2022/11/27 00:39:53;;;;;;;26.57;21.07;;;;;5.80;100166.00;;;;16578142;28;20355;-47
2022/11/27 00:47:56;;;;;;;33.63;21.60;;;;;5.40;100147.00;;;;16587702;28;20216;-48
2022/11/27 00:56:00;;;;;;;25.10;18.70;;;;;5.30;100146.00;;;;16581393;28;20303;-47
2022/11/27 01:04:03;;;;;;;24.07;19.97;;;;;5.20;100131.00;;;;16588121;28;20273;-47
2022/11/27 01:12:08;;;;;;;23.17;20.63;;;;;5.50;100121.00;;;;16591627;28;20286;-47
2022/11/27 01:20:11;;;;;;;28.97;22.07;;;;;5.50;100108.00;;;;16590803;28;20262;-47
2022/11/27 01:28:15;;;;;;;27.17;21.13;;;;;5.20;100106.00;;;;16590229;28;20301;-48
2022/11/27 01:36:17;;;;;;;28.00;19.17;;;;;5.20;100101.00;;;;16582174;28;20219;-47
2022/11/27 01:44:55;;;;;;;24.63;20.07;;;;;5.30;100090.00;;;;16587267;28;20231;-46
2022/11/27 01:53:01;;;;;;;21.50;17.87;;;;;5.30;100081.00;;;;16587258;28;20259;-47
2022/11/27 02:01:06;;;;;;;43.10;24.87;;;;;5.00;100079.00;;;;16586458;28;20225;-47
2022/11/27 02:09:10;;;;;;;20.63;18.40;;;;;5.40;100076.00;;;;16587766;28;20209;-47
2022/11/27 02:17:17;;;;;;;25.30;17.30;;;;;5.30;100063.00;;;;16589735;28;20328;-47
2022/11/27 02:25:27;;;;;;;26.87;18.33;;;;;5.20;100063.00;;;;16585823;28;20234;-47
2022/11/27 02:33:33;;;;;;;25.90;17.40;;;;;4.00;100066.00;;;;16586419;28;20231;-47
2022/11/27 02:41:38;;;;;;;26.73;18.53;;;;;5.10;100063.00;;;;16594378;28;20282;-48
2022/11/27 02:49:43;;;;;;;22.43;16.90;;;;;5.10;100062.00;;;;16588773;28;20223;-47
2022/11/27 02:57:48;;;;;;;17.90;16.00;;;;;5.00;100047.00;;;;16588244;28;20721;-47
2022/11/27 03:05:53;;;;;;;37.97;18.23;;;;;4.90;100042.00;;;;16589673;28;20285;-48
2022/11/27 03:13:58;;;;;;;16.60;14.30;;;;;4.90;100043.00;;;;16589114;28;20313;-47
2022/11/27 03:22:03;;;;;;;25.70;17.27;;;;;4.90;100042.00;;;;16584520;28;20227;-47
2022/11/27 03:30:08;;;;;;;20.23;16.53;;;;;5.00;100032.00;;;;16583545;28;20604;-47
2022/11/27 03:38:12;;;;;;;23.23;17.93;;;;;4.80;100016.00;;;;16582602;28;20634;-48
2022/11/27 03:46:20;;;;;;;21.47;16.07;;;;;4.80;100021.00;;;;16589867;28;20270;-47
2022/11/27 03:54:34;;;;;;;17.43;15.20;;;;;4.70;100032.00;;;;16577335;28;20235;-47
2022/11/27 04:02:42;;;;;;;16.67;14.87;;;;;4.90;100039.00;;;;16580376;28;20235;-46
2022/11/27 04:10:46;;;;;;;31.87;15.47;;;;;4.70;100012.00;;;;16582609;28;20302;-47
2022/11/27 04:18:49;;;;;;;26.67;15.00;;;;;4.40;100027.00;;;;16584833;28;20260;-46
2022/11/27 04:26:52;;;;;;;20.90;14.67;;;;;4.50;100021.00;;;;16583715;28;20919;-45
2022/11/27 04:34:55;;;;;;;21.90;16.17;;;;;4.30;100019.00;;;;16587249;28;20259;-47
2022/11/27 04:42:59;;;;;;;19.77;14.73;;;;;3.90;100000.00;;;;16599163;28;20219;-48
2022/11/27 04:51:01;;;;;;;27.30;14.67;;;;;3.90;100003.00;;;;16596176;28;20358;-48
2022/11/27 04:59:05;;;;;;;22.93;15.30;;;;;3.70;100007.00;;;;16593988;28;20269;-45
2022/11/27 05:07:08;;;;;;;20.83;15.13;;;;;3.80;99996.00;;;;16596922;28;20216;-47
2022/11/27 05:15:12;;;;;;;21.50;14.50;;;;;3.70;99995.00;;;;16592375;28;20759;-47
2022/11/27 05:23:14;;;;;;;25.97;15.47;;;;;3.60;99982.00;;;;16594242;28;20327;-47
2022/11/27 05:31:18;;;;;;;18.10;16.20;;;;;3.60;99983.00;;;;16592659;28;20317;-47
2022/11/27 05:39:20;;;;;;;23.17;15.50;;;;;3.40;99978.00;;;;16581056;28;20633;-46
2022/11/27 05:47:24;;;;;;;18.03;14.27;;;;;3.60;99987.00;;;;16593098;28;20250;-47
2022/11/27 05:55:27;;;;;;;17.90;15.10;;;;;3.80;99985.00;;;;16590731;28;20219;-47
2022/11/27 06:12:55;;;;;;;14.50;13.00;;;;;4.00;100000.00;;;;16580942;28;20218;-47
2022/11/27 06:20:57;;;;;;;15.97;14.13;;;;;4.00;99988.00;;;;16588246;28;20236;-47
2022/11/27 06:29:02;;;;;;;13.43;12.03;;;;;3.90;99978.00;;;;16588976;28;20295;-47
2022/11/27 06:37:04;;;;;;;14.37;12.77;;;;;3.50;99995.00;;;;16586230;28;20805;-46
2022/11/27 06:45:09;;;;;;;13.70;12.20;;;;;3.80;100003.00;;;;16586857;28;20657;-48
2022/11/27 06:53:11;;;;;;;20.10;14.27;;;;;3.50;99985.00;;;;16599644;28;20227;-47
2022/11/27 07:01:17;;;;;;;16.40;12.63;;;;;3.70;99968.00;;;;16584320;28;20676;-47
2022/11/27 07:09:19;;;;;;;14.17;11.23;;;;;3.60;99975.00;;;;16583605;28;20212;-46
2022/11/27 07:17:23;;;;;;;15.67;12.20;;;;;3.50;99979.00;;;;16591901;28;20330;-47
2022/11/27 07:25:26;;;;;;;15.00;12.10;;;;;3.50;99984.00;;;;16585032;28;20814;-47
2022/11/27 07:33:30;;;;;;;14.13;12.70;;;;;3.50;99955.00;;;;16583883;28;20300;-48
2022/11/27 07:41:32;;;;;;;11.53;10.43;;;;;3.40;99943.00;;;;16581491;28;20266;-47
2022/11/27 07:49:36;;;;;;;12.30;11.10;;;;;3.40;99922.00;;;;16582837;28;20203;-47
2022/11/27 07:57:38;;;;;;;13.40;11.47;;;;;3.50;99917.00;;;;16589540;28;20249;-47
2022/11/27 08:05:42;;;;;;;10.73;9.70;;;;;3.50;99919.00;;;;16593146;28;20234;-48
2022/11/27 08:13:45;;;;;;;11.27;9.97;;;;;3.80;99915.00;;;;16594044;28;20219;-47
2022/11/27 08:21:48;;;;;;;10.87;9.80;;;;;4.20;99906.00;;;;16573902;28;20300;-47
2022/11/27 08:29:51;;;;;;;10.20;9.10;;;;;4.40;99887.00;;;;16588138;28;20291;-46
2022/11/27 08:37:55;;;;;;;9.70;8.70;;;;;4.40;99889.00;;;;16552951;28;20304;-47
2022/11/27 08:45:57;;;;;;;9.93;9.00;;;;;4.20;99883.00;;;;16592158;28;20314;-47
2022/11/27 08:54:01;;;;;;;13.87;11.07;;;;;4.40;99875.00;;;;16587594;28;20309;-46
2022/11/27 09:02:03;;;;;;;12.13;10.83;;;;;4.30;99859.00;;;;16592889;28;20235;-47
2022/11/27 09:10:09;;;;;;;16.73;13.30;;;;;4.10;99834.00;;;;16589754;28;20238;-46
2022/11/27 09:18:11;;;;;;;17.40;14.03;;;;;4.50;99842.00;;;;16553115;28;20224;-48
2022/11/27 09:26:16;;;;;;;20.17;15.17;;;;;5.10;99836.00;;;;16551195;28;20786;-47
2022/11/27 09:34:19;;;;;;;14.23;11.90;;;;;5.40;99836.00;;;;16543978;28;20270;-47
2022/11/27 09:42:36;;;;;;;13.43;11.27;;;;;5.30;99811.00;;;;16545780;28;20356;-45
2022/11/27 09:50:49;;;;;;;14.47;12.33;;;;;5.20;99810.00;;;;16557914;28;20238;-47
2022/11/27 09:58:57;;;;;;;15.00;13.37;;;;;5.40;99797.00;;;;16576133;28;20274;-47
2022/11/27 10:07:10;;;;;;;13.07;11.67;;;;;6.50;99765.00;;;;16583741;28;20218;-46
2022/11/27 10:15:17;;;;;;;11.10;10.10;;;;;6.90;99756.00;;;;16586704;28;20791;-47
2022/11/27 10:23:27;;;;;;;11.73;10.30;;;;;7.00;99735.00;;;;16581092;28;20280;-46
2022/11/27 10:31:39;;;;;;;12.97;11.50;;;;;6.80;99731.00;;;;16609280;28;20234;-47
2022/11/27 10:39:45;;;;;;;14.17;12.77;;;;;6.80;99722.00;;;;16585811;28;20218;-46
2022/11/27 10:47:49;;;;;;;12.73;11.53;;;;;8.60;99713.00;;;;16587034;28;20246;-47
2022/11/27 10:56:09;;;;;;;10.40;9.13;;;;;9.10;99686.00;;;;16587781;28;20599;-47
2022/11/27 11:04:15;;;;;;;10.10;9.20;;;;;9.70;99662.00;;;;16581186;28;20318;-47
2022/11/27 11:12:20;;;;;;;10.27;9.27;;;;;10.60;99637.00;;;;16572856;28;20220;-47
2022/11/27 11:20:25;;;;;;;10.47;9.57;;;;;10.80;99606.00;;;;16560188;28;20253;-47
2022/11/27 11:28:28;;;;;;;10.23;9.30;;;;;11.30;99591.00;;;;16561931;28;20984;-47
2022/11/27 11:36:32;;;;;;;10.83;9.83;;;;;11.70;99541.00;;;;16591311;28;20227;-47
2022/11/27 11:44:40;;;;;;;11.10;10.10;;;;;10.70;99544.00;;;;16578162;28;20304;-47
2022/11/27 11:52:51;;;;;;;11.90;10.70;;;;;10.10;99547.00;;;;16583907;28;20301;-47
2022/11/27 12:01:00;;;;;;;11.53;10.50;;;;;11.40;99526.00;;;;16556690;28;20232;-47
2022/11/27 12:09:32;;;;;;;9.93;9.13;;;;;12.50;99504.00;;;;16539807;28;20569;-46
2022/11/27 12:17:44;;;;;;;10.77;9.83;;;;;13.20;99473.00;;;;16560671;28;21521;-47
2022/11/27 12:25:55;;;;;;;10.30;9.40;;;;;12.80;99464.00;;;;16562012;28;20284;-46
2022/11/27 12:34:02;;;;;;;12.80;11.50;;;;;13.80;99442.00;;;;16570517;28;20223;-46
2022/11/27 12:42:15;;;;;;;10.90;9.73;;;;;14.40;99442.00;;;;16576916;28;20593;-47
2022/11/27 12:50:22;;;;;;;10.30;9.40;;;;;14.70;99423.00;;;;16558535;28;20294;-47
2022/11/27 12:58:29;;;;;;;18.00;16.07;;;;;14.90;99421.00;;;;16579157;28;20219;-48
2022/11/27 13:06:34;;;;;;;11.60;10.50;;;;;14.40;99392.00;;;;16569976;28;20302;-47
2022/11/27 13:14:39;;;;;;;9.70;8.80;;;;;15.20;99386.00;;;;16593993;28;20282;-47
2022/11/27 13:22:42;;;;;;;10.30;9.30;;;;;14.80;99378.00;;;;16592892;28;20297;-47
2022/11/27 13:30:46;;;;;;;9.30;8.37;;;;;14.50;99367.00;;;;16600063;28;20268;-47
2022/11/27 13:38:54;;;;;;;11.27;10.20;;;;;14.90;99359.00;;;;16591565;28;20318;-48
2022/11/27 13:47:05;;;;;;;8.13;7.43;;;;;13.40;99371.00;;;;16597493;28;20695;-47
2022/11/27 13:55:09;;;;;;;9.00;8.10;;;;;12.70;99361.00;;;;16589785;28;20255;-47
2022/11/27 14:03:24;;;;;;;8.80;7.20;;;;;11.60;99369.00;;;;16588223;28;20730;-47
2022/11/27 14:11:33;;;;;;;13.70;10.17;;;;;11.80;99362.00;;;;16596294;28;20227;-47
2022/11/27 14:19:41;;;;;;;40.10;26.77;;;;;12.00;99367.00;;;;16583624;28;20257;-47
2022/11/27 14:27:44;;;;;;;73.77;53.37;;;;;13.10;99348.00;;;;16596975;28;20702;-48
2022/11/27 14:35:50;;;;;;;12.53;10.30;;;;;11.70;99337.00;;;;16582410;28;20302;-47
2022/11/27 14:44:00;;;;;;;13.17;11.87;;;;;12.40;99320.00;;;;16550395;28;20313;-47
2022/11/27 14:52:06;;;;;;;13.03;9.20;;;;;12.80;99289.00;;;;16587416;28;20277;-47
2022/11/27 15:00:18;;;;;;;9.60;8.47;;;;;12.60;99270.00;;;;16585063;28;20257;-48
2022/11/27 15:08:22;;;;;;;9.67;8.57;;;;;12.40;99261.00;;;;16584852;28;20226;-47
2022/11/27 15:16:26;;;;;;;9.23;8.20;;;;;12.70;99266.00;;;;16584710;28;20768;-47
2022/11/27 15:24:33;;;;;;;11.17;10.00;;;;;12.40;99247.00;;;;16585710;28;20227;-48
2022/11/27 15:32:50;;;;;;;9.30;8.40;;;;;12.20;99242.00;;;;16607243;28;20310;-47
2022/11/27 15:41:00;;;;;;;9.77;8.77;;;;;12.10;99245.00;;;;16579441;28;20273;-48
2022/11/27 15:49:05;;;;;;;11.87;9.50;;;;;11.70;99228.00;;;;16596590;28;20373;-47
2022/11/27 15:57:09;;;;;;;11.10;9.87;;;;;11.50;99233.00;;;;16587002;28;20313;-47
2022/11/27 16:05:11;;;;;;;12.90;11.00;;;;;11.40;99249.00;;;;16582518;28;20289;-47
2022/11/27 16:13:15;;;;;;;11.23;9.07;;;;;11.50;99251.00;;;;16579541;28;20223;-47
2022/11/27 16:21:18;;;;;;;11.80;10.60;;;;;11.50;99240.00;;;;16584741;28;20639;-47
2022/11/27 16:29:22;;;;;;;10.63;9.53;;;;;11.30;99246.00;;;;16586806;28;20203;-47
2022/11/27 16:37:24;;;;;;;13.57;11.17;;;;;11.10;99249.00;;;;16588858;28;20651;-47
2022/11/27 16:45:28;;;;;;;12.17;9.83;;;;;11.00;99228.00;;;;16562796;28;20590;-47
2022/11/27 16:53:31;;;;;;;11.43;10.37;;;;;10.80;99213.00;;;;16593135;28;20216;-47
2022/11/27 17:01:39;;;;;;;11.43;10.23;;;;;10.60;99209.00;;;;16592963;28;20368;-47
2022/11/27 17:09:42;;;;;;;10.67;9.50;;;;;10.30;99197.00;;;;16592971;28;20202;-47
2022/11/27 17:17:45;;;;;;;11.80;9.73;;;;;10.40;99181.00;;;;16595121;28;20309;-48
2022/11/27 17:25:48;;;;;;;13.30;10.00;;;;;10.30;99164.00;;;;16589341;28;20223;-47
2022/11/27 17:33:55;;;;;;;13.03;10.00;;;;;9.80;99171.00;;;;16595875;28;20211;-47
2022/11/27 17:41:59;;;;;;;12.70;11.40;;;;;9.90;99147.00;;;;16587472;28;20242;-47
2022/11/27 17:50:03;;;;;;;13.20;11.37;;;;;10.00;99156.00;;;;16595144;28;20188;-47
2022/11/27 17:58:06;;;;;;;13.53;10.63;;;;;10.00;99136.00;;;;16585169;28;20398;-47
2022/11/27 18:06:10;;;;;;;10.97;9.87;;;;;10.20;99141.00;;;;16586774;28;20219;-47
2022/11/27 18:14:13;;;;;;;11.23;9.90;;;;;10.00;99114.00;;;;16585949;28;20219;-47
2022/11/27 18:22:18;;;;;;;11.00;9.80;;;;;9.80;99099.00;;;;16574663;28;20757;-47
2022/11/27 18:30:20;;;;;;;11.67;10.47;;;;;9.80;99106.00;;;;16575422;28;20274;-47
2022/11/27 18:38:24;;;;;;;10.90;9.80;;;;;10.30;99108.00;;;;16552766;28;20231;-47
2022/11/27 18:46:27;;;;;;;14.37;12.57;;;;;10.30;99101.00;;;;16559258;28;20224;-47
2022/11/27 18:54:31;;;;;;;23.73;21.20;;;;;10.50;99090.00;;;;16570109;28;20219;-48
2022/11/27 19:02:33;;;;;;;13.83;12.23;;;;;10.30;99068.00;;;;16566632;28;21192;-47
2022/11/27 19:10:37;;;;;;;11.80;10.67;;;;;10.10;99080.00;;;;16566475;28;20199;-47
2022/11/27 19:18:40;;;;;;;13.80;10.50;;;;;10.30;99069.00;;;;16581253;28;20746;-47
2022/11/27 19:26:44;;;;;;;12.80;11.37;;;;;9.80;99039.00;;;;16590058;28;20237;-47
2022/11/27 19:34:46;;;;;;;13.07;11.67;;;;;9.70;99027.00;;;;16556851;28;20224;-47
2022/11/27 19:42:51;;;;;;;12.57;11.40;;;;;9.80;99003.00;;;;16542803;28;20325;-47
2022/11/27 19:50:54;;;;;;;15.17;11.93;;;;;9.30;98993.00;;;;16579331;28;20219;-47
2022/11/27 19:58:58;;;;;;;17.07;14.20;;;;;9.60;99001.00;;;;16580673;28;20235;-47
2022/11/27 20:07:00;;;;;;;13.23;11.43;;;;;9.80;98998.00;;;;16564161;28;20231;-47
2022/11/27 20:15:06;;;;;;;23.43;18.93;;;;;9.10;99015.00;;;;16549259;28;20259;-47
2022/11/27 20:23:08;;;;;;;31.40;24.67;;;;;8.80;99006.00;;;;16557473;28;20236;-47
2022/11/27 20:31:16;;;;;;;15.30;13.40;;;;;8.60;99004.00;;;;16579639;28;20254;-47
2022/11/27 20:39:19;;;;;;;39.93;25.60;;;;;9.20;98981.00;;;;16533048;28;20275;-47
2022/11/27 20:47:23;;;;;;;22.37;19.97;;;;;9.50;98970.00;;;;16566034;28;20231;-47
2022/11/27 20:55:26;;;;;;;25.30;18.97;;;;;9.50;98976.00;;;;16556222;28;20628;-47
2022/11/27 21:03:30;;;;;;;25.20;21.70;;;;;9.40;98946.00;;;;16559644;28;20224;-47
2022/11/27 21:11:34;;;;;;;13.20;11.13;;;;;9.40;98949.00;;;;16526003;28;20224;-47
2022/11/27 21:19:38;;;;;;;12.17;11.03;;;;;9.50;98935.00;;;;16541460;28;20689;-47
2022/11/27 21:27:40;;;;;;;12.73;11.43;;;;;9.70;98920.00;;;;16550156;28;20243;-47
2022/11/27 21:35:44;;;;;;;16.10;14.23;;;;;8.90;98947.00;;;;16533829;28;20350;-47
2022/11/27 21:43:48;;;;;;;14.13;12.73;;;;;8.10;98951.00;;;;16537118;28;20227;-47
2022/11/27 21:51:53;;;;;;;12.70;11.33;;;;;8.00;98952.00;;;;16542783;28;20241;-47
2022/11/27 21:59:59;;;;;;;13.40;11.30;;;;;8.80;98918.00;;;;16534846;28;20238;-47
2022/11/27 22:08:03;;;;;;;20.33;17.57;;;;;9.00;98914.00;;;;16567611;28;20321;-48
2022/11/27 22:16:09;;;;;;;12.67;11.13;;;;;9.60;98893.00;;;;16589050;28;20766;-47
2022/11/27 22:24:14;;;;;;;11.83;10.63;;;;;9.70;98885.00;;;;16586949;28;20324;-47
2022/11/27 22:32:16;;;;;;;10.40;9.40;;;;;9.60;98882.00;;;;16598222;28;20231;-48
2022/11/27 22:40:20;;;;;;;11.90;10.70;;;;;9.60;98891.00;;;;16581142;28;20715;-47
2022/11/27 22:48:23;;;;;;;14.57;12.53;;;;;9.70;98879.00;;;;16593652;28;20223;-48
2022/11/27 22:56:28;;;;;;;12.97;11.70;;;;;9.40;98849.00;;;;16585927;28;20223;-47
2022/11/27 23:04:30;;;;;;;11.57;10.47;;;;;9.50;98860.00;;;;16585328;28;20733;-47
2022/11/27 23:12:34;;;;;;;11.17;10.07;;;;;9.30;98830.00;;;;16584463;28;20212;-47
2022/11/27 23:20:41;;;;;;;12.17;10.87;;;;;9.60;98842.00;;;;16586201;28;20306;-48
2022/11/27 23:28:45;;;;;;;10.87;9.53;;;;;9.60;98800.00;;;;16589216;28;20298;-48
2022/11/27 23:36:48;;;;;;;12.67;11.17;;;;;9.70;98785.00;;;;16593789;28;20219;-47
2022/11/27 23:44:51;;;;;;;11.53;10.33;;;;;9.70;98785.00;;;;16583242;28;20401;-47
2022/11/27 23:52:54;;;;;;;10.80;9.80;;;;;9.90;98763.00;;;;16582290;28;20302;-47
